This is the latest recevied weather packets stored in our database for station/object N0NAI-13. If no packets are shown the sender has not sent any weather packets the latest 10 day(s).
| Time | Temp. | Humidity | Pressure | Rain* | Wind** | Luminosity | Snow |
|---|---|---|---|---|---|---|---|
| 1777659319 | 12.22° C | 40% | 1020 hPa | 0 mm | - | - | - |
| 1777658721 | 12.22° C | 40% | 1020.1 hPa | 0 mm | - | - | - |
| 1777658124 | 11.11° C | 44% | 1020 hPa | 0 mm | - | - | - |
| 1777657521 | 12.22° C | 42% | 1020 hPa | 0 mm | - | - | - |
| 1777656919 | 11.67° C | 42% | 1020 hPa | 0 mm | - | - | - |
| 1777656333 | 11.67° C | 41% | 1020.2 hPa | 0 mm | - | - | - |
| 1777655718 | 11.11° C | 43% | 1020.2 hPa | 0 mm | - | - | - |
| 1777655120 | 11.11° C | 44% | 1020.3 hPa | 0 mm | - | - | - |
| 1777654523 | 11.67° C | 44% | 1020.2 hPa | 0 mm | - | - | - |
| 1777653926 | 11.67° C | 43% | 1020.2 hPa | 0 mm | - | - | - |
| 1777653329 | 11.11° C | 45% | 1020.2 hPa | 0 mm | - | - | - |
| 1777652732 | 11.67° C | 44% | 1020.2 hPa | 0 mm | - | - | - |
| 1777652116 | 11.11° C | 46% | 1020.2 hPa | 0 mm | - | - | - |
| 1777651519 | 10.56° C | 45% | 1020.2 hPa | 0 mm | - | - | - |
| 1777650922 | 10° C | 48% | 1020.3 hPa | 0 mm | - | - | - |
| 1777650325 | 8.89° C | 49% | 1020.2 hPa | 0 mm | - | - | - |
| 1777649728 | 10.56° C | 47% | 1020.2 hPa | 0 mm | - | - | - |
| 1777649131 | 10° C | 47% | 1020.2 hPa | 0 mm | - | - | - |
| 1777648516 | 9.44° C | 50% | 1020.2 hPa | 0 mm | - | - | - |
| 1777647918 | 10° C | 51% | 1020.3 hPa | 0 mm | - | - | - |
| 1777647321 | 9.44° C | 50% | 1020.2 hPa | 0 mm | - | - | - |
| 1777646724 | 8.89° C | 52% | 1020.2 hPa | 0 mm | - | - | - |
| 1777646121 | 8.89° C | 53% | 1020.2 hPa | 0 mm | - | - | - |
| 1777645518 | 8.33° C | 55% | 1020.2 hPa | 0 mm | - | - | - |
| 1777644933 | 7.22° C | 56% | 1020.2 hPa | 0 mm | - | - | - |
* Rain latest hour (hover to see other rain measurements)
** Current wind speed in m/s (hover to see current wind gust speed)